sensor_id;sensor_type;location;lat;lon;timestamp;pressure;altitude;pressure_sealevel;temperature;humidity
53270;BME280;39159;45.634;9.420;2022-10-30T00:00:26;99684.28;;;14.81;95.58
53270;BME280;39159;45.634;9.420;2022-10-30T00:02:51;99679.09;;;14.80;95.70
53270;BME280;39159;45.634;9.420;2022-10-30T00:05:17;99678.59;;;14.78;96.35
53270;BME280;39159;45.634;9.420;2022-10-30T00:07:44;99674.84;;;14.74;96.62
53270;BME280;39159;45.634;9.420;2022-10-30T00:10:10;99674.69;;;14.70;96.89
53270;BME280;39159;45.634;9.420;2022-10-30T00:12:35;99665.81;;;14.73;97.13
53270;BME280;39159;45.634;9.420;2022-10-30T00:15:01;99677.28;;;14.75;96.63
53270;BME280;39159;45.634;9.420;2022-10-30T00:17:26;99667.59;;;14.78;96.16
53270;BME280;39159;45.634;9.420;2022-10-30T00:19:52;99668.09;;;14.80;96.00
53270;BME280;39159;45.634;9.420;2022-10-30T00:22:17;99673.59;;;14.80;96.00
53270;BME280;39159;45.634;9.420;2022-10-30T00:24:43;99670.66;;;14.76;96.21
53270;BME280;39159;45.634;9.420;2022-10-30T00:27:08;99676.81;;;14.73;96.67
53270;BME280;39159;45.634;9.420;2022-10-30T00:29:34;99666.75;;;14.68;96.70
53270;BME280;39159;45.634;9.420;2022-10-30T00:31:59;99665.78;;;14.64;97.03
53270;BME280;39159;45.634;9.420;2022-10-30T00:34:25;99660.75;;;14.58;97.82
53270;BME280;39159;45.634;9.420;2022-10-30T00:36:50;99668.78;;;14.54;98.54
53270;BME280;39159;45.634;9.420;2022-10-30T00:39:15;99670.06;;;14.48;99.30
53270;BME280;39159;45.634;9.420;2022-10-30T00:41:41;99665.50;;;14.43;100.00
53270;BME280;39159;45.634;9.420;2022-10-30T00:44:34;99661.63;;;14.44;100.00
53270;BME280;39159;45.634;9.420;2022-10-30T00:47:02;99661.31;;;14.46;100.00
53270;BME280;39159;45.634;9.420;2022-10-30T00:49:34;99653.06;;;14.46;100.00
53270;BME280;39159;45.634;9.420;2022-10-30T00:52:03;99653.88;;;14.46;100.00
53270;BME280;39159;45.634;9.420;2022-10-30T00:54:30;99658.25;;;14.47;100.00
53270;BME280;39159;45.634;9.420;2022-10-30T00:56:56;99654.69;;;14.47;100.00
53270;BME280;39159;45.634;9.420;2022-10-30T00:59:25;99654.81;;;14.42;100.00
53270;BME280;39159;45.634;9.420;2022-10-30T01:01:53;99650.97;;;14.43;100.00
53270;BME280;39159;45.634;9.420;2022-10-30T01:04:19;99649.66;;;14.40;100.00
53270;BME280;39159;45.634;9.420;2022-10-30T01:06:48;99649.66;;;14.40;100.00
53270;BME280;39159;45.634;9.420;2022-10-30T01:09:17;99642.84;;;14.38;100.00
53270;BME280;39159;45.634;9.420;2022-10-30T01:11:43;99649.97;;;14.39;100.00
53270;BME280;39159;45.634;9.420;2022-10-30T01:14:11;99648.34;;;14.38;100.00
53270;BME280;39159;45.634;9.420;2022-10-30T01:35:40;99652.19;;;14.28;100.00
53270;BME280;39159;45.634;9.420;2022-10-30T01:38:16;99641.00;;;14.24;100.00
53270;BME280;39159;45.634;9.420;2022-10-30T01:40:44;99642.47;;;14.22;100.00
53270;BME280;39159;45.634;9.420;2022-10-30T01:43:10;99641.16;;;14.19;100.00
53270;BME280;39159;45.634;9.420;2022-10-30T01:59:59;99633.69;;;14.11;100.00
53270;BME280;39159;45.634;9.420;2022-10-30T02:02:25;99633.38;;;14.13;100.00
53270;BME280;39159;45.634;9.420;2022-10-30T02:04:51;99627.88;;;14.13;100.00
53270;BME280;39159;45.634;9.420;2022-10-30T02:07:17;99626.25;;;14.12;100.00
53270;BME280;39159;45.634;9.420;2022-10-30T02:09:42;99624.94;;;14.09;100.00
53270;BME280;39159;45.634;9.420;2022-10-30T02:12:08;99627.84;;;14.04;100.00
53270;BME280;39159;45.634;9.420;2022-10-30T02:14:40;99627.63;;;14.00;100.00
53270;BME280;39159;45.634;9.420;2022-10-30T02:17:07;99621.19;;;13.96;100.00
53270;BME280;39159;45.634;9.420;2022-10-30T02:19:34;99625.97;;;13.91;100.00
53270;BME280;39159;45.634;9.420;2022-10-30T02:21:59;99624.38;;;13.89;100.00
53270;BME280;39159;45.634;9.420;2022-10-30T02:24:25;99630.16;;;13.88;100.00
53270;BME280;39159;45.634;9.420;2022-10-30T02:26:50;99613.84;;;13.83;100.00
53270;BME280;39159;45.634;9.420;2022-10-30T02:29:16;99620.94;;;13.84;100.00
53270;BME280;39159;45.634;9.420;2022-10-30T02:31:45;99626.13;;;13.85;100.00
53270;BME280;39159;45.634;9.420;2022-10-30T02:34:10;99624.81;;;13.83;100.00
53270;BME280;39159;45.634;9.420;2022-10-30T02:36:36;99623.19;;;13.82;100.00
53270;BME280;39159;45.634;9.420;2022-10-30T02:39:01;99616.09;;;13.81;100.00
53270;BME280;39159;45.634;9.420;2022-10-30T02:41:27;99613.66;;;13.79;100.00
53270;BME280;39159;45.634;9.420;2022-10-30T02:43:53;99617.69;;;13.82;100.00
53270;BME280;39159;45.634;9.420;2022-10-30T02:46:18;99611.91;;;13.83;100.00
53270;BME280;39159;45.634;9.420;2022-10-30T02:48:44;99612.50;;;13.80;100.00
53270;BME280;39159;45.634;9.420;2022-10-30T02:51:09;99606.22;;;13.80;100.00
53270;BME280;39159;45.634;9.420;2022-10-30T02:53:36;99610.09;;;13.79;100.00
53270;BME280;39159;45.634;9.420;2022-10-30T02:56:06;99609.75;;;13.80;100.00
53270;BME280;39159;45.634;9.420;2022-10-30T02:58:32;99612.50;;;13.80;100.00
53270;BME280;39159;45.634;9.420;2022-10-30T03:01:07;99603.97;;;13.82;100.00
53270;BME280;39159;45.634;9.420;2022-10-30T03:03:34;99600.94;;;13.83;100.00
53270;BME280;39159;45.634;9.420;2022-10-30T03:06:00;99603.34;;;13.85;100.00
53270;BME280;39159;45.634;9.420;2022-10-30T03:08:26;99604.34;;;13.89;100.00
53270;BME280;39159;45.634;9.420;2022-10-30T03:10:51;99597.53;;;13.86;100.00
53270;BME280;39159;45.634;9.420;2022-10-30T03:13:22;99610.47;;;13.86;100.00
53270;BME280;39159;45.634;9.420;2022-10-30T03:15:48;99608.34;;;13.83;100.00
53270;BME280;39159;45.634;9.420;2022-10-30T03:18:13;99617.19;;;13.80;100.00
53270;BME280;39159;45.634;9.420;2022-10-30T03:20:39;99600.94;;;13.61;100.00
53270;BME280;39159;45.634;9.420;2022-10-30T03:23:04;99609.41;;;13.51;100.00
53270;BME280;39159;45.634;9.420;2022-10-30T03:25:29;99609.34;;;13.42;100.00
53270;BME280;39159;45.634;9.420;2022-10-30T03:27:55;99599.94;;;13.34;100.00
53270;BME280;39159;45.634;9.420;2022-10-30T03:30:20;99609.09;;;13.30;100.00
53270;BME280;39159;45.634;9.420;2022-10-30T03:32:46;99608.56;;;13.27;100.00
53270;BME280;39159;45.634;9.420;2022-10-30T03:35:11;99615.44;;;13.25;100.00
53270;BME280;39159;45.634;9.420;2022-10-30T03:37:37;99612.72;;;13.25;100.00
53270;BME280;39159;45.634;9.420;2022-10-30T03:40:02;99611.41;;;13.22;100.00
53270;BME280;39159;45.634;9.420;2022-10-30T03:42:28;99606.13;;;13.26;100.00
53270;BME280;39159;45.634;9.420;2022-10-30T03:44:53;99619.22;;;13.29;100.00
53270;BME280;39159;45.634;9.420;2022-10-30T03:47:19;99613.94;;;13.33;100.00
53270;BME280;39159;45.634;9.420;2022-10-30T03:49:44;99616.06;;;13.36;100.00
53270;BME280;39159;45.634;9.420;2022-10-30T03:52:09;99617.69;;;13.37;100.00
53270;BME280;39159;45.634;9.420;2022-10-30T03:54:35;99614.75;;;13.33;100.00
53270;BME280;39159;45.634;9.420;2022-10-30T03:57:00;99620.75;;;13.35;100.00
53270;BME280;39159;45.634;9.420;2022-10-30T03:59:26;99615.88;;;13.32;100.00
53270;BME280;39159;45.634;9.420;2022-10-30T04:01:51;99616.50;;;13.29;100.00
53270;BME280;39159;45.634;9.420;2022-10-30T04:04:17;99614.88;;;13.28;100.00
53270;BME280;39159;45.634;9.420;2022-10-30T04:06:42;99614.16;;;13.22;100.00
53270;BME280;39159;45.634;9.420;2022-10-30T04:09:08;99612.84;;;13.20;100.00
53270;BME280;39159;45.634;9.420;2022-10-30T04:11:33;99615.06;;;13.18;100.00
53270;BME280;39159;45.634;9.420;2022-10-30T04:13:58;99609.09;;;13.16;100.00
53270;BME280;39159;45.634;9.420;2022-10-30T04:16:24;99611.94;;;13.11;100.00
53270;BME280;39159;45.634;9.420;2022-10-30T04:18:49;99616.41;;;13.06;100.00
53270;BME280;39159;45.634;9.420;2022-10-30T04:21:15;99614.81;;;13.05;100.00
53270;BME280;39159;45.634;9.420;2022-10-30T04:23:40;99614.19;;;13.09;100.00
53270;BME280;39159;45.634;9.420;2022-10-30T04:26:06;99608.72;;;13.09;100.00
53270;BME280;39159;45.634;9.420;2022-10-30T04:28:31;99612.59;;;13.07;100.00
53270;BME280;39159;45.634;9.420;2022-10-30T04:30:57;99608.53;;;13.05;100.00
53270;BME280;39159;45.634;9.420;2022-10-30T04:33:22;99621.41;;;13.04;100.00
53270;BME280;39159;45.634;9.420;2022-10-30T04:35:48;99620.09;;;13.02;100.00
53270;BME280;39159;45.634;9.420;2022-10-30T04:38:15;99625.38;;;12.98;100.00
53270;BME280;39159;45.634;9.420;2022-10-30T04:40:42;99620.81;;;12.94;100.00
53270;BME280;39159;45.634;9.420;2022-10-30T04:43:08;99619.19;;;12.93;100.00
53270;BME280;39159;45.634;9.420;2022-10-30T04:45:35;99615.66;;;12.92;100.00
53270;BME280;39159;45.634;9.420;2022-10-30T04:48:12;99618.38;;;12.92;100.00
53270;BME280;39159;45.634;9.420;2022-10-30T04:50:38;99611.69;;;12.84;100.00
53270;BME280;39159;45.634;9.420;2022-10-30T04:53:15;99613.41;;;12.80;100.00
53270;BME280;39159;45.634;9.420;2022-10-30T04:55:41;99614.56;;;12.79;100.00
53270;BME280;39159;45.634;9.420;2022-10-30T04:58:07;99612.31;;;12.81;100.00
53270;BME280;39159;45.634;9.420;2022-10-30T05:00:33;99607.84;;;12.85;100.00
53270;BME280;39159;45.634;9.420;2022-10-30T05:03:00;99617.59;;;12.92;100.00
53270;BME280;39159;45.634;9.420;2022-10-30T05:05:29;99605.38;;;12.98;100.00
53270;BME280;39159;45.634;9.420;2022-10-30T05:07:55;99600.59;;;13.03;100.00
53270;BME280;39159;45.634;9.420;2022-10-30T05:10:21;99604.66;;;13.06;100.00
53270;BME280;39159;45.634;9.420;2022-10-30T05:12:46;99602.63;;;13.12;100.00
53270;BME280;39159;45.634;9.420;2022-10-30T05:15:12;99599.06;;;13.11;100.00
53270;BME280;39159;45.634;9.420;2022-10-30T05:17:38;99597.16;;;13.12;100.00
53270;BME280;39159;45.634;9.420;2022-10-30T05:20:05;99597.94;;;13.12;100.00
53270;BME280;39159;45.634;9.420;2022-10-30T05:22:31;99597.56;;;13.05;100.00
53270;BME280;39159;45.634;9.420;2022-10-30T05:24:56;99593.50;;;13.02;100.00
53270;BME280;39159;45.634;9.420;2022-10-30T05:27:22;99596.84;;;12.99;100.00
53270;BME280;39159;45.634;9.420;2022-10-30T05:29:47;99595.56;;;12.97;100.00
53270;BME280;39159;45.634;9.420;2022-10-30T05:32:13;99592.00;;;12.96;100.00
53270;BME280;39159;45.634;9.420;2022-10-30T05:34:38;99593.63;;;12.97;100.00
53270;BME280;39159;45.634;9.420;2022-10-30T05:37:04;99587.63;;;12.95;100.00
53270;BME280;39159;45.634;9.420;2022-10-30T05:39:29;99591.50;;;12.94;100.00
53270;BME280;39159;45.634;9.420;2022-10-30T05:41:55;99589.56;;;12.95;100.00
53270;BME280;39159;45.634;9.420;2022-10-30T05:44:20;99586.53;;;12.96;100.00
53270;BME280;39159;45.634;9.420;2022-10-30T05:46:46;99589.28;;;12.96;100.00
53270;BME280;39159;45.634;9.420;2022-10-30T05:49:11;99586.03;;;12.94;100.00
53270;BME280;39159;45.634;9.420;2022-10-30T05:51:36;99587.03;;;12.98;100.00
53270;BME280;39159;45.634;9.420;2022-10-30T05:54:02;99586.41;;;13.01;100.00
53270;BME280;39159;45.634;9.420;2022-10-30T05:56:27;99590.06;;;12.97;100.00
53270;BME280;39159;45.634;9.420;2022-10-30T05:58:53;99591.50;;;12.94;100.00
53270;BME280;39159;45.634;9.420;2022-10-30T06:01:18;99588.25;;;12.92;100.00
53270;BME280;39159;45.634;9.420;2022-10-30T06:03:44;99598.88;;;12.94;100.00
53270;BME280;39159;45.634;9.420;2022-10-30T06:06:10;99597.94;;;13.12;100.00
53270;BME280;39159;45.634;9.420;2022-10-30T06:08:36;99603.59;;;13.16;100.00
53270;BME280;39159;45.634;9.420;2022-10-30T06:11:01;99604.44;;;13.16;100.00
53270;BME280;39159;45.634;9.420;2022-10-30T06:13:27;99599.75;;;13.17;100.00
53270;BME280;39159;45.634;9.420;2022-10-30T06:15:55;99607.06;;;13.21;100.00
53270;BME280;39159;45.634;9.420;2022-10-30T06:18:21;99611.09;;;13.24;100.00
53270;BME280;39159;45.634;9.420;2022-10-30T06:20:46;99609.00;;;13.21;100.00
53270;BME280;39159;45.634;9.420;2022-10-30T06:23:12;99603.91;;;13.28;100.00
53270;BME280;39159;45.634;9.420;2022-10-30T06:25:37;99607.66;;;13.32;100.00
53270;BME280;39159;45.634;9.420;2022-10-30T06:28:03;99607.53;;;13.37;100.00
53270;BME280;39159;45.634;9.420;2022-10-30T06:30:29;99605.50;;;13.43;100.00
53270;BME280;39159;45.634;9.420;2022-10-30T06:33:02;99610.41;;;13.55;100.00
53270;BME280;39159;45.634;9.420;2022-10-30T06:35:29;99607.75;;;13.63;100.00
53270;BME280;39159;45.634;9.420;2022-10-30T06:37:55;99611.97;;;13.70;100.00
53270;BME280;39159;45.634;9.420;2022-10-30T06:40:22;99617.94;;;13.72;100.00
53270;BME280;39159;45.634;9.420;2022-10-30T06:42:49;99617.38;;;13.83;100.00
53270;BME280;39159;45.634;9.420;2022-10-30T06:45:17;99618.88;;;13.89;100.00
53270;BME280;39159;45.634;9.420;2022-10-30T06:47:42;99611.63;;;13.94;100.00
53270;BME280;39159;45.634;9.420;2022-10-30T06:50:13;99611.19;;;14.00;100.00
53270;BME280;39159;45.634;9.420;2022-10-30T06:52:39;99617.53;;;14.09;100.00
53270;BME280;39159;45.634;9.420;2022-10-30T06:55:05;99612.06;;;14.18;100.00
53270;BME280;39159;45.634;9.420;2022-10-30T06:57:31;99614.38;;;14.25;100.00
53270;BME280;39159;45.634;9.420;2022-10-30T06:59:56;99616.34;;;14.33;100.00
53270;BME280;39159;45.634;9.420;2022-10-30T07:02:21;99619.13;;;14.42;100.00
53270;BME280;39159;45.634;9.420;2022-10-30T07:04:47;99613.50;;;14.47;100.00
53270;BME280;39159;45.634;9.420;2022-10-30T07:07:13;99613.03;;;14.54;100.00
53270;BME280;39159;45.634;9.420;2022-10-30T07:09:39;99617.78;;;14.62;100.00
53270;BME280;39159;45.634;9.420;2022-10-30T07:12:05;99605.84;;;14.66;100.00
53270;BME280;39159;45.634;9.420;2022-10-30T07:14:31;99624.94;;;14.80;100.00
53270;BME280;39159;45.634;9.420;2022-10-30T07:16:56;99619.94;;;14.82;100.00
53270;BME280;39159;45.634;9.420;2022-10-30T07:19:22;99622.53;;;14.87;100.00
53270;BME280;39159;45.634;9.420;2022-10-30T07:21:48;99615.44;;;14.95;100.00
53270;BME280;39159;45.634;9.420;2022-10-30T07:24:13;99624.00;;;15.02;100.00
53270;BME280;39159;45.634;9.420;2022-10-30T07:26:39;99622.06;;;15.11;100.00
53270;BME280;39159;45.634;9.420;2022-10-30T07:29:05;99623.88;;;15.25;100.00
53270;BME280;39159;45.634;9.420;2022-10-30T07:31:30;99627.59;;;15.46;100.00
53270;BME280;39159;45.634;9.420;2022-10-30T07:33:56;99624.22;;;15.75;100.00
53270;BME280;39159;45.634;9.420;2022-10-30T07:36:22;99623.00;;;16.03;99.74
53270;BME280;39159;45.634;9.420;2022-10-30T07:38:49;99628.13;;;16.30;97.41
53270;BME280;39159;45.634;9.420;2022-10-30T07:41:17;99631.13;;;16.55;95.30
53270;BME280;39159;45.634;9.420;2022-10-30T07:43:43;99631.97;;;16.85;92.98
53270;BME280;39159;45.634;9.420;2022-10-30T07:46:08;99630.31;;;17.14;91.41
53270;BME280;39159;45.634;9.420;2022-10-30T07:48:34;99640.69;;;17.38;91.38
53270;BME280;39159;45.634;9.420;2022-10-30T07:50:59;99638.94;;;17.54;88.22
53270;BME280;39159;45.634;9.420;2022-10-30T07:53:25;99639.31;;;17.65;85.90
53270;BME280;39159;45.634;9.420;2022-10-30T07:55:50;99633.34;;;17.84;83.89
53270;BME280;39159;45.634;9.420;2022-10-30T07:58:16;99628.75;;;17.88;81.77
53270;BME280;39159;45.634;9.420;2022-10-30T08:00:41;99633.38;;;17.96;82.01
53270;BME280;39159;45.634;9.420;2022-10-30T08:03:08;99633.22;;;18.26;81.74
53270;BME280;39159;45.634;9.420;2022-10-30T08:05:35;99635.53;;;18.49;81.72
53270;BME280;39159;45.634;9.420;2022-10-30T08:08:00;99628.53;;;18.63;80.59
53270;BME280;39159;45.634;9.420;2022-10-30T08:10:25;99641.34;;;18.80;79.14
53270;BME280;39159;45.634;9.420;2022-10-30T08:12:51;99637.44;;;18.81;77.15
53270;BME280;39159;45.634;9.420;2022-10-30T08:15:17;99647.13;;;18.88;77.72
53270;BME280;39159;45.634;9.420;2022-10-30T08:17:44;99646.53;;;18.94;79.19
53270;BME280;39159;45.634;9.420;2022-10-30T08:20:11;99644.56;;;18.95;80.39
53270;BME280;39159;45.634;9.420;2022-10-30T08:25:09;99653.75;;;19.23;80.89
53270;BME280;39159;45.634;9.420;2022-10-30T08:27:35;99653.03;;;19.39;80.20
53270;BME280;39159;45.634;9.420;2022-10-30T08:30:00;99650.19;;;19.63;79.05
53270;BME280;39159;45.634;9.420;2022-10-30T08:32:26;99653.34;;;19.90;77.99
53270;BME280;39159;45.634;9.420;2022-10-30T08:34:51;99653.44;;;20.09;75.58
53270;BME280;39159;45.634;9.420;2022-10-30T08:37:17;99645.09;;;20.22;73.24
53270;BME280;39159;45.634;9.420;2022-10-30T08:39:42;99646.72;;;20.39;72.43
53270;BME280;39159;45.634;9.420;2022-10-30T08:42:07;99651.56;;;20.58;73.39
53270;BME280;39159;45.634;9.420;2022-10-30T08:44:33;99644.94;;;20.78;73.02
53270;BME280;39159;45.634;9.420;2022-10-30T08:46:59;99645.09;;;21.01;73.18
53270;BME280;39159;45.634;9.420;2022-10-30T08:49:24;99643.59;;;21.23;72.87
53270;BME280;39159;45.634;9.420;2022-10-30T08:51:51;99638.78;;;21.40;72.39
53270;BME280;39159;45.634;9.420;2022-10-30T08:54:16;99636.53;;;21.45;71.66
53270;BME280;39159;45.634;9.420;2022-10-30T08:56:42;99643.88;;;21.53;70.99
53270;BME280;39159;45.634;9.420;2022-10-30T08:59:07;99638.97;;;21.47;71.25
53270;BME280;39159;45.634;9.420;2022-10-30T09:01:33;99646.34;;;21.59;71.33
53270;BME280;39159;45.634;9.420;2022-10-30T09:04:00;99646.56;;;21.69;71.14
53270;BME280;39159;45.634;9.420;2022-10-30T09:06:25;99646.88;;;21.84;70.35
53270;BME280;39159;45.634;9.420;2022-10-30T09:08:51;99647.59;;;21.81;70.75
53270;BME280;39159;45.634;9.420;2022-10-30T09:11:16;99644.34;;;21.98;70.37
53270;BME280;39159;45.634;9.420;2022-10-30T09:13:42;99643.41;;;22.10;68.54
53270;BME280;39159;45.634;9.420;2022-10-30T09:16:07;99636.56;;;22.27;67.85
53270;BME280;39159;45.634;9.420;2022-10-30T09:18:33;99634.97;;;22.26;67.57
53270;BME280;39159;45.634;9.420;2022-10-30T09:20:58;99637.53;;;22.34;67.12
53270;BME280;39159;45.634;9.420;2022-10-30T09:23:24;99636.25;;;22.32;66.30
53270;BME280;39159;45.634;9.420;2022-10-30T09:25:49;99640.00;;;22.20;65.67
53270;BME280;39159;45.634;9.420;2022-10-30T09:28:14;99643.13;;;22.19;65.53
53270;BME280;39159;45.634;9.420;2022-10-30T09:30:40;99640.78;;;22.21;66.36
53270;BME280;39159;45.634;9.420;2022-10-30T09:33:05;99643.13;;;22.19;67.19
53270;BME280;39159;45.634;9.420;2022-10-30T09:35:31;99634.59;;;22.27;68.04
53270;BME280;39159;45.634;9.420;2022-10-30T09:37:57;99638.44;;;22.42;66.75
53270;BME280;39159;45.634;9.420;2022-10-30T09:51:36;99636.72;;;23.37;65.35
53270;BME280;39159;45.634;9.420;2022-10-30T09:54:54;99645.13;;;23.41;65.07
53270;BME280;39159;45.634;9.420;2022-10-30T09:57:05;99639.00;;;23.28;65.74
53270;BME280;39159;45.634;9.420;2022-10-30T10:02:43;99637.88;;;23.32;66.40
53270;BME280;39159;45.634;9.420;2022-10-30T10:05:20;99636.28;;;23.05;66.46
53270;BME280;39159;45.634;9.420;2022-10-30T10:07:47;99636.44;;;23.15;66.56
53270;BME280;39159;45.634;9.420;2022-10-30T10:10:21;99638.78;;;23.13;66.64
53270;BME280;39159;45.634;9.420;2022-10-30T10:12:50;99642.25;;;23.33;66.15
53270;BME280;39159;45.634;9.420;2022-10-30T10:18:01;99627.78;;;23.85;63.84
53270;BME280;39159;45.634;9.420;2022-10-30T10:20:36;99634.56;;;23.84;63.94
53270;BME280;39159;45.634;9.420;2022-10-30T10:23:17;99630.50;;;24.15;62.83
53270;BME280;39159;45.634;9.420;2022-10-30T10:25:50;99632.25;;;24.34;61.25
53270;BME280;39159;45.634;9.420;2022-10-30T10:31:00;99627.53;;;24.38;61.65
53270;BME280;39159;45.634;9.420;2022-10-30T10:36:35;99619.19;;;24.41;59.67
53270;BME280;39159;45.634;9.420;2022-10-30T10:42:37;99619.09;;;24.31;61.01
53270;BME280;39159;45.634;9.420;2022-10-30T10:50:33;99619.56;;;24.40;60.99
53270;BME280;39159;45.634;9.420;2022-10-30T10:53:17;99615.56;;;24.37;60.86
53270;BME280;39159;45.634;9.420;2022-10-30T10:55:50;99613.50;;;24.31;60.18
53270;BME280;39159;45.634;9.420;2022-10-30T10:58:30;99609.94;;;24.34;60.08
53270;BME280;39159;45.634;9.420;2022-10-30T11:00:58;99611.47;;;24.69;59.90
53270;BME280;39159;45.634;9.420;2022-10-30T11:05:55;99605.31;;;25.08;58.87
53270;BME280;39159;45.634;9.420;2022-10-30T11:08:30;99605.78;;;25.17;57.28
53270;BME280;39159;45.634;9.420;2022-10-30T11:10:58;99595.38;;;25.14;55.39
53270;BME280;39159;45.634;9.420;2022-10-30T11:13:34;99596.94;;;25.04;56.04
53270;BME280;39159;45.634;9.420;2022-10-30T11:16:32;99596.63;;;24.57;57.17
53270;BME280;39159;45.634;9.420;2022-10-30T11:19:03;99593.84;;;24.57;57.34
53270;BME280;39159;45.634;9.420;2022-10-30T11:21:40;99589.47;;;24.60;58.00
53270;BME280;39159;45.634;9.420;2022-10-30T11:26:50;99587.63;;;24.82;56.60
53270;BME280;39159;45.634;9.420;2022-10-30T11:29:23;99586.38;;;24.76;56.32
53270;BME280;39159;45.634;9.420;2022-10-30T11:32:04;99585.63;;;24.79;56.39
53270;BME280;39159;45.634;9.420;2022-10-30T11:34:32;99585.63;;;24.79;56.26
53270;BME280;39159;45.634;9.420;2022-10-30T11:36:59;99579.97;;;24.72;55.71
53270;BME280;39159;45.634;9.420;2022-10-30T11:39:26;99585.66;;;24.90;55.88
53270;BME280;39159;45.634;9.420;2022-10-30T11:44:36;99586.53;;;24.97;54.00
53270;BME280;39159;45.634;9.420;2022-10-30T11:47:04;99575.38;;;25.01;54.65
53270;BME280;39159;45.634;9.420;2022-10-30T11:49:31;99580.19;;;25.08;54.83
53270;BME280;39159;45.634;9.420;2022-10-30T11:51:59;99570.25;;;25.10;53.40
53270;BME280;39159;45.634;9.420;2022-10-30T11:54:25;99570.72;;;25.19;54.24
53270;BME280;39159;45.634;9.420;2022-10-30T11:56:51;99570.72;;;25.23;53.69
53270;BME280;39159;45.634;9.420;2022-10-30T11:59:20;99564.75;;;25.25;54.42
53270;BME280;39159;45.634;9.420;2022-10-30T12:01:57;99562.66;;;25.14;53.61
53270;BME280;39159;45.634;9.420;2022-10-30T12:04:26;99562.00;;;25.28;54.14
53270;BME280;39159;45.634;9.420;2022-10-30T12:07:31;99566.38;;;25.29;52.63
53270;BME280;39159;45.634;9.420;2022-10-30T12:09:57;99553.66;;;25.46;53.52
53270;BME280;39159;45.634;9.420;2022-10-30T12:13:02;99550.06;;;25.42;52.24
53270;BME280;39159;45.634;9.420;2022-10-30T12:15:22;99546.41;;;25.34;52.96
53270;BME280;39159;45.634;9.420;2022-10-30T12:17:54;99538.88;;;25.46;52.20
53270;BME280;39159;45.634;9.420;2022-10-30T12:20:22;99540.13;;;25.55;51.78
53270;BME280;39159;45.634;9.420;2022-10-30T12:22:48;99535.34;;;25.63;51.04
53270;BME280;39159;45.634;9.420;2022-10-30T12:25:23;99535.78;;;25.76;49.68
53270;BME280;39159;45.634;9.420;2022-10-30T12:27:58;99531.75;;;25.62;49.16
53270;BME280;39159;45.634;9.420;2022-10-30T12:30:25;99528.56;;;25.64;49.44
53270;BME280;39159;45.634;9.420;2022-10-30T12:35:44;99524.56;;;25.61;48.98
53270;BME280;39159;45.634;9.420;2022-10-30T12:38:28;99527.00;;;25.77;48.73
53270;BME280;39159;45.634;9.420;2022-10-30T12:43:35;99525.38;;;25.76;49.35
53270;BME280;39159;45.634;9.420;2022-10-30T12:49:32;99520.53;;;25.52;48.36
53270;BME280;39159;45.634;9.420;2022-10-30T12:57:25;99507.75;;;25.43;48.79
53270;BME280;39159;45.634;9.420;2022-10-30T13:00:11;99512.56;;;25.61;47.59
53270;BME280;39159;45.634;9.420;2022-10-30T13:03:02;99508.59;;;25.69;48.63
53270;BME280;39159;45.634;9.420;2022-10-30T13:05:40;99504.22;;;25.68;48.92
53270;BME280;39159;45.634;9.420;2022-10-30T13:13:54;99495.34;;;25.41;49.25
53270;BME280;39159;45.634;9.420;2022-10-30T13:16:30;99500.13;;;25.33;49.42
53270;BME280;39159;45.634;9.420;2022-10-30T13:19:00;99494.00;;;25.02;50.29
53270;BME280;39159;45.634;9.420;2022-10-30T13:24:10;99492.41;;;25.05;50.67
53270;BME280;39159;45.634;9.420;2022-10-30T13:26:42;99482.06;;;25.09;50.26
53270;BME280;39159;45.634;9.420;2022-10-30T13:29:45;99482.00;;;24.98;50.73
53270;BME280;39159;45.634;9.420;2022-10-30T13:35:20;99476.38;;;24.84;51.00
53270;BME280;39159;45.634;9.420;2022-10-30T13:37:56;99471.63;;;24.88;50.65
53270;BME280;39159;45.634;9.420;2022-10-30T13:40:49;99474.81;;;24.90;51.88
53270;BME280;39159;45.634;9.420;2022-10-30T13:46:05;99478.72;;;24.75;52.19
53270;BME280;39159;45.634;9.420;2022-10-30T13:51:34;99466.69;;;24.60;51.78
53270;BME280;39159;45.634;9.420;2022-10-30T13:54:16;99467.38;;;24.46;51.83
53270;BME280;39159;45.634;9.420;2022-10-30T13:56:44;99468.84;;;24.29;54.29
53270;BME280;39159;45.634;9.420;2022-10-30T13:59:47;99471.09;;;24.09;54.35
53270;BME280;39159;45.634;9.420;2022-10-30T14:05:27;99467.41;;;23.98;54.16
53270;BME280;39159;45.634;9.420;2022-10-30T14:10:48;99454.13;;;23.81;55.34
53270;BME280;39159;45.634;9.420;2022-10-30T14:13:26;99456.78;;;23.66;56.87
53270;BME280;39159;45.634;9.420;2022-10-30T14:16:06;99452.72;;;23.60;56.98
53270;BME280;39159;45.634;9.420;2022-10-30T14:18:47;99453.41;;;23.50;58.02
53270;BME280;39159;45.634;9.420;2022-10-30T14:26:36;99443.25;;;23.27;58.56
53270;BME280;39159;45.634;9.420;2022-10-30T14:31:53;99445.03;;;23.09;59.51
53270;BME280;39159;45.634;9.420;2022-10-30T14:37:07;99441.28;;;22.97;60.56
53270;BME280;39159;45.634;9.420;2022-10-30T14:39:40;99439.66;;;22.93;61.11
53270;BME280;39159;45.634;9.420;2022-10-30T14:45:24;99434.75;;;22.83;60.60
53270;BME280;39159;45.634;9.420;2022-10-30T14:49:05;99436.25;;;22.76;60.84
53270;BME280;39159;45.634;9.420;2022-10-30T14:51:21;99448.09;;;22.70;61.84
53270;BME280;39159;45.634;9.420;2022-10-30T14:54:07;99441.66;;;22.62;62.80
53270;BME280;39159;45.634;9.420;2022-10-30T15:04:29;99446.44;;;22.35;62.18
53270;BME280;39159;45.634;9.420;2022-10-30T15:10:31;99439.78;;;22.17;63.42
53270;BME280;39159;45.634;9.420;2022-10-30T15:15:42;99441.59;;;22.05;63.86
53270;BME280;39159;45.634;9.420;2022-10-30T15:18:14;99438.34;;;22.00;63.59
53270;BME280;39159;45.634;9.420;2022-10-30T15:20:41;99440.56;;;21.90;64.10
53270;BME280;39159;45.634;9.420;2022-10-30T15:23:17;99438.78;;;21.79;63.60